Time;durP1;ratioP1;P1;durP2;ratioP2;P2;SDS_P1;SDS_P2;PMS_P1;PMS_P2;Temp;Humidity;BMP_temperature;BMP_pressure;BME280_temperature;BME280_humidity;BME280_pressure;Samples;Min_cycle;Max_cycle;Signal;HPM_P1;HPM_P2
2022/11/22 00:00:32;;;;;;;48.30;27.80;;;;;;;1.74;76.57;99442.69;105043;1293;97752;-80
2022/11/22 00:03:03;;;;;;;44.90;25.60;;;;;;;1.76;76.59;99440.41;104915;1292;139990;-80
2022/11/22 00:05:34;;;;;;;43.30;26.10;;;;;;;1.78;76.41;99442.32;105052;1291;94151;-81
2022/11/22 00:08:05;;;;;;;42.10;24.20;;;;;;;1.80;76.49;99441.60;104918;1286;140502;-79
2022/11/22 00:10:36;;;;;;;41.90;24.50;;;;;;;1.75;76.50;99440.42;105077;1301;107811;-80
2022/11/22 00:13:07;;;;;;;42.50;26.80;;;;;;;1.75;76.45;99442.87;105052;1292;98375;-80
2022/11/22 00:15:37;;;;;;;42.90;25.10;;;;;;;1.75;76.37;99438.84;104929;1292;140354;-79
2022/11/22 00:18:08;;;;;;;43.00;24.80;;;;;;;1.73;76.36;99441.48;105072;1297;92877;-80
2022/11/22 00:20:39;;;;;;;40.90;24.70;;;;;;;1.71;76.39;99448.33;104965;1300;141439;-80
2022/11/22 00:23:09;;;;;;;41.10;24.80;;;;;;;1.71;76.56;99448.33;105046;1292;108975;-80
2022/11/22 00:25:40;;;;;;;44.50;26.70;;;;;;;1.71;76.44;99447.27;104976;1286;138919;-80
2022/11/22 00:28:11;;;;;;;44.50;26.10;;;;;;;1.71;76.68;99448.14;105032;1296;107399;-80
2022/11/22 00:30:41;;;;;;;39.40;23.50;;;;;;;1.73;76.58;99446.03;105052;1300;93369;-80
2022/11/22 00:33:12;;;;;;;43.10;25.80;;;;;;;1.71;76.69;99445.70;104935;1292;139744;-80
2022/11/22 00:35:44;;;;;;;42.30;26.10;;;;;;;1.75;76.96;99448.11;105056;1292;108411;-80
2022/11/22 00:38:15;;;;;;;43.70;26.70;;;;;;;1.79;76.52;99448.79;104941;1292;137940;-79
2022/11/22 00:40:45;;;;;;;45.50;26.10;;;;;;;1.80;76.42;99449.82;105042;1292;107439;-79
2022/11/22 00:43:16;;;;;;;40.20;24.60;;;;;;;1.82;76.48;99444.39;105042;1285;93408;-79
2022/11/22 00:45:47;;;;;;;41.30;24.60;;;;;;;1.82;76.28;99443.15;104980;1291;138312;-80
2022/11/22 00:48:17;;;;;;;41.40;23.50;;;;;;;1.81;76.46;99445.81;105035;1285;111019;-79
2022/11/22 00:50:49;;;;;;;44.50;26.40;;;;;;;1.77;76.49;99440.23;104974;1294;138749;-80
2022/11/22 00:53:22;;;;;;;41.90;24.10;;;;;;;1.73;76.79;99444.96;105011;1301;107267;-80
2022/11/22 00:55:52;;;;;;;42.30;24.60;;;;;;;1.73;76.84;99442.88;104880;1285;139259;-79
2022/11/22 00:58:23;;;;;;;39.90;23.50;;;;;;;1.71;76.89;99440.97;105044;1297;93175;-79
2022/11/22 01:00:54;;;;;;;41.50;24.00;;;;;;;1.70;77.05;99441.33;105052;1292;108555;-80
2022/11/22 01:03:26;;;;;;;44.00;26.00;;;;;;;1.69;76.93;99445.17;104935;1292;138692;-79
2022/11/22 01:05:57;;;;;;;42.70;24.50;;;;;;;1.68;77.03;99445.36;105036;1294;107112;-80
2022/11/22 01:08:28;;;;;;;41.70;24.50;;;;;;;1.67;77.23;99442.02;104950;1294;138268;-79
2022/11/22 01:11:00;;;;;;;38.90;23.60;;;;;;;1.66;77.12;99444.14;105034;1300;93083;-79
2022/11/22 01:13:31;;;;;;;43.50;25.60;;;;;;;1.64;77.24;99443.27;105031;1292;108254;-79
2022/11/22 01:16:04;;;;;;;40.80;24.20;;;;;;;1.70;77.43;99445.52;105050;1292;98102;-79
2022/11/22 01:18:35;;;;;;;43.50;25.20;;;;;;;1.82;77.40;99444.91;105053;1294;107797;-80
2022/11/22 01:21:06;;;;;;;45.00;26.30;;;;;;;1.88;76.66;99445.41;104911;1294;138589;-80
2022/11/22 01:23:37;;;;;;;42.50;24.20;;;;;;;1.86;76.56;99446.47;105039;1292;93269;-80
2022/11/22 01:26:09;;;;;;;40.60;23.30;;;;;;;1.83;76.42;99447.19;104941;1298;139255;-79
2022/11/22 01:28:40;;;;;;;38.80;22.90;;;;;;;1.85;76.65;99441.58;105064;1284;98085;-79
2022/11/22 01:31:11;;;;;;;42.30;25.60;;;;;;;1.86;76.51;99443.14;105017;1297;107556;-81
2022/11/22 01:33:41;;;;;;;43.00;24.60;;;;;;;1.85;76.65;99432.13;104945;1297;140037;-80
2022/11/22 01:36:12;;;;;;;39.60;22.40;;;;;;;1.85;76.63;99433.00;105029;1302;93482;-79
2022/11/22 01:38:43;;;;;;;41.60;23.60;;;;;;;1.76;76.34;99434.27;104910;1290;140074;-80
2022/11/22 01:41:13;;;;;;;43.00;24.20;;;;;;;1.69;76.75;99438.52;105044;1292;97889;-79
2022/11/22 01:43:44;;;;;;;42.80;24.80;;;;;;;1.69;77.00;99438.36;104927;1290;138162;-80
2022/11/22 01:46:26;;;;;;;40.70;22.80;;;;;;;1.74;77.09;99437.79;105064;1299;93215;-79
2022/11/22 01:49:00;;;;;;;42.30;24.40;;;;;;;1.76;76.72;99441.81;105042;1294;94810;-79
2022/11/22 01:51:35;;;;;;;41.40;25.10;;;;;;;1.74;76.62;99441.65;104918;1294;138610;-79
2022/11/22 01:54:09;;;;;;;42.30;23.80;;;;;;;1.74;76.72;99441.82;105039;1291;98036;-80
2022/11/22 01:56:41;;;;;;;45.60;25.50;;;;;;;1.76;76.98;99443.04;104923;1292;138286;-79
2022/11/22 01:59:17;;;;;;;46.70;26.90;;;;;;;1.75;76.94;99449.16;105056;1294;93439;-81
2022/11/22 02:01:48;;;;;;;45.50;26.90;;;;;;;1.81;76.90;99458.05;104934;1285;140666;-80
2022/11/22 02:04:21;;;;;;;49.20;27.50;;;;;;;1.86;76.90;99462.05;105062;1292;108322;-80
2022/11/22 02:06:56;;;;;;;49.40;28.00;;;;;;;1.89;76.45;99467.11;105059;1291;98115;-80
2022/11/22 02:09:29;;;;;;;48.40;26.60;;;;;;;1.93;76.79;99470.06;104941;1300;140413;-79
2022/11/22 02:12:03;;;;;;;50.10;28.20;;;;;;;2.01;76.55;99474.39;105031;1285;93286;-80
2022/11/22 02:14:36;;;;;;;51.20;26.70;;;;;;;2.04;76.26;99476.47;104926;1291;138718;-80
2022/11/22 02:17:07;;;;;;;50.10;28.90;;;;;;;1.95;76.05;99473.55;105043;1300;108989;-79
2022/11/22 02:19:42;;;;;;;50.30;27.60;;;;;;;1.92;76.34;99475.48;104950;1294;140459;-78
2022/11/22 02:22:25;;;;;;;50.50;28.70;;;;;;;1.90;76.16;99479.52;105057;1292;107364;-79
2022/11/22 02:25:02;;;;;;;49.00;27.00;;;;;;;1.86;76.42;99480.25;105006;1293;94172;-80
2022/11/22 02:27:32;;;;;;;53.50;30.30;;;;;;;1.83;76.57;99478.00;104910;1294;140152;-80
2022/11/22 02:30:03;;;;;;;51.60;28.70;;;;;;;1.92;76.86;99479.34;105037;1292;108254;-80
2022/11/22 02:32:34;;;;;;;52.10;28.70;;;;;;;1.99;76.59;99484.55;104937;1292;139956;-80
2022/11/22 02:35:19;;;;;;;51.30;28.50;;;;;;;1.97;76.24;99494.73;105049;1295;107875;-80
2022/11/22 02:37:52;;;;;;;51.50;28.90;;;;;;;1.92;76.41;99493.34;104936;1292;139636;-80
2022/11/22 02:40:24;;;;;;;50.50;29.40;;;;;;;1.95;76.61;99494.04;104924;1292;139693;-80
2022/11/22 02:43:00;;;;;;;48.20;27.20;;;;;;;2.01;76.62;99493.11;105047;1285;108955;-80
2022/11/22 02:45:30;;;;;;;49.90;28.50;;;;;;;2.00;75.94;99491.38;104923;1286;139389;-80
2022/11/22 02:48:08;;;;;;;48.60;28.60;;;;;;;1.95;76.22;99489.66;105018;1292;107465;-80
2022/11/22 02:50:39;;;;;;;49.20;27.40;;;;;;;1.93;76.44;99495.45;104942;1292;140756;-80
2022/11/22 02:53:11;;;;;;;49.30;28.00;;;;;;;1.94;76.41;99491.23;105038;1294;93155;-80
2022/11/22 02:55:42;;;;;;;50.50;27.90;;;;;;;1.96;76.26;99490.36;104911;1295;141593;-80
2022/11/22 02:58:13;;;;;;;49.80;28.70;;;;;;;1.93;76.32;99489.49;105027;1292;97992;-79
2022/11/22 03:00:43;;;;;;;47.40;27.20;;;;;;;1.93;76.39;99488.27;105027;1292;106984;-79
2022/11/22 03:03:14;;;;;;;49.90;28.50;;;;;;;1.88;76.44;99487.23;104904;1292;141484;-80
2022/11/22 03:05:45;;;;;;;52.10;29.20;;;;;;;1.89;76.67;99486.55;105051;1292;93174;-80
2022/11/22 03:08:15;;;;;;;51.30;29.10;;;;;;;1.94;76.59;99481.42;104932;1294;138651;-80
2022/11/22 03:10:46;;;;;;;53.20;29.70;;;;;;;1.98;76.37;99484.91;105087;1285;97352;-80
2022/11/22 03:13:16;;;;;;;51.10;29.30;;;;;;;1.92;76.41;99488.27;105024;1288;106391;-79
2022/11/22 03:15:49;;;;;;;50.90;27.80;;;;;;;1.91;76.58;99483.03;104933;1288;138646;-80
2022/11/22 03:18:20;;;;;;;51.20;28.70;;;;;;;1.93;76.83;99478.47;105070;1292;93254;-80
2022/11/22 03:20:50;;;;;;;54.80;29.50;;;;;;;2.00;76.65;99479.65;104897;1301;141007;-79
2022/11/22 03:23:21;;;;;;;52.10;28.60;;;;;;;1.95;76.11;99478.81;105046;1284;97633;-80
2022/11/22 03:25:52;;;;;;;52.00;28.50;;;;;;;1.87;76.29;99477.27;104911;1294;138838;-80
2022/11/22 03:28:24;;;;;;;54.50;29.00;;;;;;;1.75;76.61;99469.46;105037;1291;93455;-79
2022/11/22 03:30:55;;;;;;;56.60;30.70;;;;;;;1.66;77.10;99464.08;105045;1292;93166;-79
2022/11/22 03:33:25;;;;;;;56.60;29.40;;;;;;;1.69;77.40;99469.67;104884;1292;139496;-79
2022/11/22 03:35:58;;;;;;;55.40;29.20;;;;;;;1.72;77.35;99472.99;105028;1291;96995;-80
2022/11/22 03:38:28;;;;;;;54.40;28.80;;;;;;;1.73;77.26;99471.05;104903;1290;138626;-79
2022/11/22 03:40:59;;;;;;;52.70;28.80;;;;;;;1.68;77.17;99472.83;105027;1295;93464;-79
2022/11/22 03:43:30;;;;;;;54.10;28.80;;;;;;;1.63;77.51;99474.24;105032;1294;93545;-80
2022/11/22 03:46:00;;;;;;;57.40;30.50;;;;;;;1.59;77.62;99473.04;105053;1294;108455;-80
2022/11/22 03:48:31;;;;;;;58.00;31.20;;;;;;;1.56;77.80;99472.90;105061;1284;98005;-81
2022/11/22 03:51:06;;;;;;;57.80;29.00;;;;;;;1.56;77.84;99472.18;104944;1294;138782;-80
2022/11/22 03:53:37;;;;;;;59.20;30.70;;;;;;;1.54;77.95;99475.86;104967;1286;92914;-80
2022/11/22 03:56:08;;;;;;;55.30;29.70;;;;;;;1.56;78.04;99474.64;104934;1293;138943;-80
2022/11/22 03:58:38;;;;;;;55.40;30.00;;;;;;;1.57;78.05;99471.30;105030;1292;109100;-79
2022/11/22 04:01:09;;;;;;;57.40;30.60;;;;;;;1.58;78.00;99476.91;105078;1290;98035;-80
2022/11/22 04:03:48;;;;;;;59.20;31.70;;;;;;;1.55;77.93;99478.85;104887;1280;138391;-80
2022/11/22 04:06:18;;;;;;;60.10;31.30;;;;;;;1.60;78.12;99481.27;104982;1287;93188;-80
2022/11/22 04:08:49;;;;;;;62.50;31.70;;;;;;;1.62;77.84;99480.55;104924;1286;138368;-81
2022/11/22 04:11:20;;;;;;;60.20;32.10;;;;;;;1.65;78.06;99476.86;105050;1292;108443;-80
2022/11/22 04:16:39;;;;;;;59.40;30.60;;;;;;;1.64;77.93;99471.80;104995;1294;107476;-79
2022/11/22 04:19:09;;;;;;;61.80;31.80;;;;;;;1.58;77.98;99467.63;105063;1294;93219;-80
2022/11/22 04:21:40;;;;;;;60.60;30.40;;;;;;;1.55;78.05;99467.29;104825;1294;138255;-80
2022/11/22 04:27:00;;;;;;;61.50;31.50;;;;;;;1.47;78.58;99460.16;104928;1302;139889;-79
2022/11/22 04:29:31;;;;;;;60.90;32.30;;;;;;;1.49;78.36;99463.48;105027;1294;107701;-80
2022/11/22 04:34:50;;;;;;;63.70;32.70;;;;;;;1.52;78.49;99461.52;105023;1287;92877;-80
2022/11/22 04:37:20;;;;;;;64.60;30.70;;;;;;;1.49;78.58;99459.45;105031;1293;108209;-79
2022/11/22 04:39:51;;;;;;;63.50;31.90;;;;;;;1.47;78.68;99456.13;104903;1292;138524;-80
2022/11/22 04:45:11;;;;;;;64.20;31.50;;;;;;;1.58;78.91;99452.58;104907;1292;139045;-80
2022/11/22 04:48:00;;;;;;;63.40;32.10;;;;;;;1.60;78.40;99452.05;105019;1294;92982;-80
2022/11/22 04:53:20;;;;;;;66.00;31.70;;;;;;;1.61;78.76;99455.71;105033;1294;96381;-80
2022/11/22 04:55:51;;;;;;;65.40;30.80;;;;;;;1.60;78.60;99460.80;104923;1292;139209;-81
2022/11/22 04:58:22;;;;;;;65.00;31.20;;;;;;;1.57;78.67;99460.46;105007;1287;93691;-80
2022/11/22 05:00:53;;;;;;;65.40;31.10;;;;;;;1.55;78.76;99463.61;105055;1295;93247;-80
2022/11/22 05:03:24;;;;;;;66.50;32.00;;;;;;;1.51;79.07;99465.02;104930;1285;139330;-80
2022/11/22 05:05:54;;;;;;;68.50;32.90;;;;;;;1.48;78.75;99468.02;105030;1293;96953;-80
2022/11/22 05:08:25;;;;;;;66.50;30.50;;;;;;;1.43;79.07;99475.91;104922;1295;138587;-80
2022/11/22 05:10:59;;;;;;;69.50;33.60;;;;;;;1.40;79.30;99478.04;105038;1292;93272;-81
2022/11/22 05:13:32;;;;;;;67.80;31.40;;;;;;;1.40;79.54;99480.48;105086;1292;92770;-80
2022/11/22 05:16:04;;;;;;;64.70;30.50;;;;;;;1.42;79.38;99479.95;105050;1302;106356;-80
2022/11/22 05:18:35;;;;;;;70.90;33.00;;;;;;;1.41;79.23;99483.63;105052;1291;95894;-80
2022/11/22 05:21:08;;;;;;;67.30;30.30;;;;;;;1.38;79.40;99480.31;104892;1294;138843;-80
2022/11/22 05:23:54;;;;;;;66.10;31.30;;;;;;;1.35;79.60;99482.41;105005;1284;93253;-80
2022/11/22 05:26:27;;;;;;;70.30;31.40;;;;;;;1.33;79.86;99480.84;104907;1293;138874;-80
2022/11/22 05:28:58;;;;;;;69.70;32.30;;;;;;;1.34;79.72;99483.48;105034;1285;108341;-80
2022/11/22 05:31:29;;;;;;;66.20;31.80;;;;;;;1.42;79.88;99479.24;105044;1294;97976;-80
2022/11/22 05:34:00;;;;;;;70.40;33.00;;;;;;;1.44;79.54;99485.70;104900;1294;140886;-80
2022/11/22 05:36:33;;;;;;;73.40;33.90;;;;;;;1.49;79.74;99490.92;105052;1298;92892;-80
2022/11/22 05:39:04;;;;;;;71.40;32.40;;;;;;;1.60;79.50;99495.44;104918;1287;139408;-80
2022/11/22 05:41:35;;;;;;;67.10;32.10;;;;;;;1.57;79.11;99501.05;104973;1284;109305;-81
2022/11/22 05:44:06;;;;;;;74.00;33.90;;;;;;;1.53;79.36;99508.24;104929;1284;140225;-81
2022/11/22 05:46:36;;;;;;;71.20;32.70;;;;;;;1.54;79.46;99511.55;105026;1292;106597;-80
2022/11/22 05:49:07;;;;;;;74.20;32.90;;;;;;;1.53;79.38;99515.41;105059;1294;93075;-80
2022/11/22 05:51:37;;;;;;;73.20;33.00;;;;;;;1.50;79.31;99519.79;104918;1276;140427;-79
2022/11/22 05:54:08;;;;;;;182.00;105.60;;;;;;;1.51;79.26;99528.88;104963;1291;108800;-79
2022/11/22 05:56:40;;;;;;;77.10;33.90;;;;;;;1.53;79.59;99531.33;104864;1287;140297;-81
2022/11/22 05:59:11;;;;;;;76.20;34.60;;;;;;;1.53;79.65;99527.83;104978;1291;107440;-80
2022/11/22 06:01:42;;;;;;;77.70;34.80;;;;;;;1.55;79.51;99529.75;104887;1294;140254;-80
2022/11/22 06:04:13;;;;;;;75.70;33.80;;;;;;;1.55;79.51;99529.58;104936;1294;94492;-80
2022/11/22 06:06:46;;;;;;;77.30;34.70;;;;;;;1.55;79.61;99529.73;105026;1287;108411;-80
2022/11/22 06:09:16;;;;;;;75.80;34.60;;;;;;;1.59;79.42;99531.13;104906;1282;139986;-79
2022/11/22 06:11:47;;;;;;;77.10;33.50;;;;;;;1.62;79.47;99538.81;104959;1290;107909;-80
2022/11/22 06:14:18;;;;;;;73.70;33.60;;;;;;;1.56;79.27;99538.67;104956;1285;139381;-80
2022/11/22 06:16:50;;;;;;;74.60;34.00;;;;;;;1.58;79.79;99536.91;105076;1293;93172;-77
2022/11/22 06:19:21;;;;;;;74.70;32.30;;;;;;;1.65;79.98;99539.16;105007;1283;108418;-79
2022/11/22 06:21:51;;;;;;;76.20;34.10;;;;;;;1.68;79.36;99543.17;104944;1300;140249;-79
2022/11/22 06:24:22;;;;;;;76.00;32.20;;;;;;;1.68;79.37;99543.52;105035;1284;107502;-79
2022/11/22 06:26:53;;;;;;;78.60;33.60;;;;;;;1.67;79.30;99539.68;104909;1294;140840;-80
2022/11/22 06:29:23;;;;;;;77.50;34.00;;;;;;;1.64;79.54;99536.18;104984;1271;92860;-80
2022/11/22 06:31:54;;;;;;;73.70;33.10;;;;;;;1.61;79.60;99538.30;104889;1299;138531;-81
2022/11/22 06:34:32;;;;;;;76.80;33.90;;;;;;;1.60;79.76;99537.60;105104;1292;98108;-80
2022/11/22 06:37:03;;;;;;;74.30;32.80;;;;;;;1.61;79.90;99541.27;105008;1284;107390;-79
2022/11/22 06:39:34;;;;;;;78.50;33.10;;;;;;;1.62;79.87;99536.20;104848;1278;139163;-80
2022/11/22 06:42:05;;;;;;;71.20;31.50;;;;;;;1.69;79.76;99540.89;105009;1285;92794;-80
2022/11/22 06:44:35;;;;;;;71.40;31.50;;;;;;;1.67;79.80;99540.55;104903;1295;139285;-80
2022/11/22 06:47:07;;;;;;;75.80;33.90;;;;;;;1.63;79.77;99541.09;105054;1293;97958;-80
2022/11/22 06:49:38;;;;;;;77.00;32.90;;;;;;;1.63;79.91;99546.52;104935;1278;139715;-80
2022/11/22 06:52:08;;;;;;;72.20;32.70;;;;;;;1.66;80.09;99545.10;105030;1294;93027;-80
2022/11/22 06:54:39;;;;;;;79.80;34.50;;;;;;;1.72;80.16;99542.45;105057;1301;93240;-79
2022/11/22 06:57:12;;;;;;;73.80;33.70;;;;;;;1.79;79.86;99547.84;104883;1277;140419;-81
2022/11/22 06:59:43;;;;;;;83.00;35.00;;;;;;;1.84;79.60;99546.95;105061;1294;96919;-79
2022/11/22 07:02:14;;;;;;;77.80;34.90;;;;;;;1.87;79.81;99552.72;104900;1278;139078;-79
2022/11/22 07:04:44;;;;;;;76.60;34.00;;;;;;;2.00;79.99;99558.61;105026;1300;93728;-80
2022/11/22 07:07:35;;;;;;;84.60;35.30;;;;;;;2.04;79.08;99566.10;105010;1298;139712;-80
2022/11/22 07:10:07;;;;;;;81.30;34.80;;;;;;;2.07;79.15;99565.73;105052;1300;109078;-80
2022/11/22 07:12:38;;;;;;;77.10;35.30;;;;;;;2.10;79.01;99567.31;105006;1284;98078;-80
2022/11/22 07:15:10;;;;;;;79.60;33.60;;;;;;;2.13;78.81;99565.36;104955;1271;141069;-81
2022/11/22 07:17:41;;;;;;;79.60;34.50;;;;;;;2.16;78.87;99565.35;105045;1292;93410;-81
2022/11/22 07:20:12;;;;;;;78.80;33.80;;;;;;;2.17;78.68;99566.58;104968;1294;140203;-81
2022/11/22 07:22:43;;;;;;;80.40;34.40;;;;;;;2.16;78.56;99562.02;105047;1292;108871;-81
2022/11/22 07:25:13;;;;;;;79.10;34.10;;;;;;;2.16;78.84;99557.64;105056;1294;98197;-79
2022/11/22 07:27:44;;;;;;;78.70;34.50;;;;;;;2.14;78.53;99559.23;104883;1293;143486;-81
2022/11/22 07:30:16;;;;;;;86.50;34.60;;;;;;;2.11;78.61;99562.39;105009;1291;94061;-81
2022/11/22 07:32:49;;;;;;;81.00;33.80;;;;;;;2.05;78.77;99562.25;104946;1300;138411;-79
2022/11/22 07:35:20;;;;;;;83.70;34.10;;;;;;;2.00;78.76;99562.29;105048;1284;106944;-80
2022/11/22 07:37:50;;;;;;;85.80;35.40;;;;;;;1.96;78.86;99560.89;104918;1295;138677;-78
2022/11/22 07:40:24;;;;;;;84.20;34.30;;;;;;;1.91;79.06;99568.98;105035;1289;107477;-79
2022/11/22 07:42:55;;;;;;;83.40;33.10;;;;;;;1.89;79.28;99568.79;105046;1278;93805;-79
2022/11/22 07:45:28;;;;;;;87.10;34.30;;;;;;;1.87;79.46;99563.56;104897;1295;140492;-81
2022/11/22 07:48:02;;;;;;;87.70;34.90;;;;;;;1.81;79.53;99558.17;105039;1277;108478;-78
2022/11/22 07:50:33;;;;;;;89.30;35.40;;;;;;;1.85;79.74;99569.52;104924;1294;140073;-78
2022/11/22 07:53:04;;;;;;;88.30;35.20;;;;;;;1.90;79.70;99572.30;105014;1284;106480;-79
2022/11/22 07:55:35;;;;;;;86.00;36.00;;;;;;;1.96;79.43;99574.04;105023;1297;93285;-79
2022/11/22 07:58:06;;;;;;;88.30;34.80;;;;;;;2.00;79.79;99578.20;105034;1292;92997;-80
2022/11/22 08:00:37;;;;;;;81.50;33.40;;;;;;;2.06;79.06;99588.16;105016;1294;108979;-78
2022/11/22 08:03:09;;;;;;;88.10;34.10;;;;;;;1.99;79.05;99592.05;104931;1276;140199;-80
2022/11/22 08:05:46;;;;;;;90.40;35.80;;;;;;;1.92;79.54;99593.64;105026;1292;107394;-78
2022/11/22 08:08:17;;;;;;;87.60;35.00;;;;;;;1.95;79.49;99595.39;104895;1293;139124;-78
2022/11/22 08:10:47;;;;;;;83.50;33.50;;;;;;;1.98;79.46;99594.85;104787;1286;94247;-78
2022/11/22 08:13:18;;;;;;;85.00;33.80;;;;;;;1.95;79.50;99597.50;105011;1292;108359;-78
2022/11/22 08:15:49;;;;;;;92.60;36.80;;;;;;;1.93;79.61;99591.36;104787;1285;139528;-78
2022/11/22 08:18:24;;;;;;;87.70;34.40;;;;;;;2.02;79.87;99593.42;105019;1294;107003;-78
2022/11/22 08:21:04;;;;;;;85.60;36.00;;;;;;;2.06;79.55;99598.14;104892;1294;139897;-78
2022/11/22 08:23:34;;;;;;;89.40;35.50;;;;;;;2.03;79.53;99587.66;104940;1292;93335;-80
2022/11/22 08:26:07;;;;;;;92.10;36.30;;;;;;;2.12;79.69;99590.93;104910;1292;138725;-78
2022/11/22 08:28:38;;;;;;;92.20;36.00;;;;;;;2.23;79.49;99589.48;105014;1295;96408;-78
2022/11/22 08:31:11;;;;;;;90.10;36.30;;;;;;;2.27;79.20;99584.02;105016;1294;107463;-78
2022/11/22 08:33:42;;;;;;;96.50;37.20;;;;;;;2.31;79.01;99589.61;104923;1291;138921;-78
2022/11/22 08:36:12;;;;;;;94.80;36.20;;;;;;;2.28;78.65;99592.42;105038;1292;92922;-79
2022/11/22 08:38:43;;;;;;;90.10;35.70;;;;;;;2.27;78.60;99594.00;104917;1294;139910;-78
2022/11/22 08:41:14;;;;;;;86.00;35.20;;;;;;;2.26;78.82;99590.50;105011;1292;97739;-80
2022/11/22 08:43:44;;;;;;;90.80;36.00;;;;;;;2.34;78.79;99589.59;104908;1291;142706;-79
2022/11/22 08:46:15;;;;;;;88.80;35.40;;;;;;;2.41;78.80;99589.55;105030;1284;93222;-79
2022/11/22 08:48:46;;;;;;;91.40;35.10;;;;;;;2.46;78.66;99585.13;104962;1291;93389;-81
2022/11/22 08:51:16;;;;;;;92.40;35.90;;;;;;;2.49;78.39;99587.75;104931;1290;139281;-80
2022/11/22 08:53:47;;;;;;;89.70;35.20;;;;;;;2.56;78.37;99591.04;105032;1284;98050;-79
2022/11/22 08:56:18;;;;;;;92.50;36.00;;;;;;;2.54;77.94;99592.09;104888;1294;140389;-79
2022/11/22 08:58:48;;;;;;;87.70;34.40;;;;;;;2.51;78.01;99587.73;105029;1278;93238;-79
2022/11/22 09:01:22;;;;;;;86.20;33.70;;;;;;;2.60;78.10;99593.10;105036;1291;93261;-79
2022/11/22 09:03:52;;;;;;;88.50;35.20;;;;;;;2.61;77.70;99592.92;104929;1300;141893;-80
2022/11/22 09:06:23;;;;;;;86.20;35.50;;;;;;;2.63;77.70;99593.79;105053;1294;98205;-80
2022/11/22 09:09:14;;;;;;;86.40;36.60;;;;;;;2.64;77.70;99592.36;104921;1292;140182;-80
2022/11/22 09:12:05;;;;;;;82.20;34.70;;;;;;;2.70;77.60;99602.50;105016;1298;93319;-79
2022/11/22 09:14:36;;;;;;;91.60;36.40;;;;;;;2.67;77.41;99607.60;104920;1302;140197;-80
2022/11/22 09:17:06;;;;;;;81.90;33.40;;;;;;;2.62;77.29;99604.31;105028;1301;108315;-79
2022/11/22 09:19:38;;;;;;;83.30;34.50;;;;;;;2.55;77.25;99603.48;104965;1294;140718;-80
2022/11/22 09:22:09;;;;;;;77.80;32.30;;;;;;;2.56;77.46;99605.91;105002;1294;107464;-79
2022/11/22 09:24:40;;;;;;;82.00;34.00;;;;;;;2.58;77.32;99605.55;104985;1286;93128;-78
2022/11/22 09:27:10;;;;;;;88.30;35.60;;;;;;;2.57;77.32;99606.97;104923;1294;139385;-79
2022/11/22 09:29:41;;;;;;;88.80;35.90;;;;;;;2.61;77.86;99603.44;105040;1294;109080;-79
2022/11/22 09:32:12;;;;;;;86.10;33.90;;;;;;;2.75;77.71;99604.23;104820;1293;139937;-79
2022/11/22 09:34:42;;;;;;;80.20;33.30;;;;;;;2.75;77.02;99605.44;105003;1292;107514;-80
2022/11/22 09:37:17;;;;;;;81.30;33.40;;;;;;;2.72;77.09;99604.06;105027;1297;92832;-80
2022/11/22 09:39:48;;;;;;;85.20;34.70;;;;;;;2.75;77.25;99601.24;104921;1290;142135;-79
2022/11/22 09:42:44;;;;;;;82.00;33.10;;;;;;;2.79;77.07;99603.30;105004;1298;108360;-78
2022/11/22 09:45:44;;;;;;;82.40;34.50;;;;;;;2.81;76.94;99605.21;104916;1290;140359;-78
2022/11/22 09:48:29;;;;;;;75.20;31.00;;;;;;;2.84;76.88;99602.92;105051;1298;107578;-78
2022/11/22 09:51:06;;;;;;;87.10;34.50;;;;;;;2.81;76.75;99605.04;104933;1297;138896;-79
2022/11/22 09:53:42;;;;;;;87.00;36.70;;;;;;;2.89;76.76;99608.66;105067;1295;94040;-79
2022/11/22 09:56:15;;;;;;;88.20;35.00;;;;;;;2.95;76.78;99603.36;104890;1292;140254;-78
2022/11/22 09:58:50;;;;;;;84.50;35.10;;;;;;;3.03;76.71;99595.58;105027;1294;97698;-79
2022/11/22 10:01:31;;;;;;;88.20;35.20;;;;;;;3.12;76.48;99598.66;105028;1292;108364;-78
2022/11/22 10:04:06;;;;;;;77.10;31.90;;;;;;;3.15;76.05;99597.91;105012;1294;93806;-78
2022/11/22 10:06:41;;;;;;;81.00;32.70;;;;;;;3.09;75.69;99597.45;105024;1295;93110;-80
2022/11/22 10:09:26;;;;;;;77.70;32.00;;;;;;;3.12;76.02;99592.16;104930;1286;140061;-79
2022/11/22 10:12:03;;;;;;;82.00;32.70;;;;;;;3.28;75.92;99589.04;105034;1284;96937;-79
2022/11/22 10:14:42;;;;;;;79.10;32.40;;;;;;;3.44;75.65;99586.60;104894;1294;140921;-78
2022/11/22 10:17:28;;;;;;;75.00;33.80;;;;;;;3.60;75.21;99585.02;105008;1292;93232;-80
2022/11/22 10:20:05;;;;;;;71.80;31.40;;;;;;;3.67;74.63;99588.98;104891;1294;139181;-80
2022/11/22 10:22:36;;;;;;;71.70;31.50;;;;;;;3.67;74.13;99593.18;105021;1292;108550;-79
2022/11/22 10:25:19;;;;;;;68.10;30.80;;;;;;;3.75;74.45;99585.56;105006;1294;98032;-79
2022/11/22 10:27:57;;;;;;;59.80;28.00;;;;;;;3.87;73.91;99584.54;104901;1298;139855;-78
2022/11/22 10:30:36;;;;;;;55.90;26.40;;;;;;;3.93;73.08;99581.65;104999;1301;92922;-79
2022/11/22 10:33:18;;;;;;;53.10;26.60;;;;;;;3.97;72.84;99587.58;104940;1285;139601;-80
2022/11/22 10:36:04;;;;;;;56.20;26.20;;;;;;;4.02;72.95;99589.96;105002;1275;108506;-81
2022/11/22 10:38:50;;;;;;;59.10;27.40;;;;;;;4.09;72.60;99594.08;104928;1301;139131;-79
2022/11/22 10:41:35;;;;;;;55.80;26.10;;;;;;;4.12;72.62;99591.77;105013;1292;107370;-80
2022/11/22 10:44:20;;;;;;;40.10;20.10;;;;;;;4.19;71.68;99602.05;104872;1294;140777;-80
2022/11/22 10:47:00;;;;;;;45.30;21.90;;;;;;;4.21;71.22;99610.27;104931;1294;93368;-79
2022/11/22 10:49:55;;;;;;;60.40;27.20;;;;;;;4.16;70.72;99614.91;104971;1292;107883;-80
2022/11/22 10:52:38;;;;;;;46.30;22.90;;;;;;;4.09;70.63;99621.50;104969;1286;98011;-80
2022/11/22 10:55:21;;;;;;;45.40;21.50;;;;;;;4.04;70.47;99622.96;105007;1301;107562;-80
2022/11/22 10:58:02;;;;;;;37.30;19.00;;;;;;;4.08;70.74;99630.30;104880;1275;139605;-79
2022/11/22 11:00:36;;;;;;;44.20;20.70;;;;;;;4.03;70.07;99623.86;105098;1275;92806;-79
2022/11/22 11:03:25;;;;;;;48.10;22.90;;;;;;;4.04;70.84;99616.46;104966;1285;138677;-78
2022/11/22 11:05:59;;;;;;;44.50;22.00;;;;;;;4.05;69.73;99609.62;105017;1294;98967;-80
2022/11/22 11:08:53;;;;;;;44.10;22.20;;;;;;;3.91;69.72;99604.15;104915;1274;139702;-80
2022/11/22 11:11:45;;;;;;;52.80;24.10;;;;;;;3.82;70.20;99601.09;105005;1286;93160;-80
2022/11/22 11:14:27;;;;;;;52.80;25.00;;;;;;;3.78;70.32;99596.40;104920;1292;140869;-80
2022/11/22 11:17:00;;;;;;;46.00;23.20;;;;;;;3.81;70.47;99592.33;104991;1284;108317;-79
2022/11/22 11:19:37;;;;;;;49.40;23.70;;;;;;;3.82;70.68;99596.71;105041;1299;98304;-79
2022/11/22 11:22:17;;;;;;;41.40;20.80;;;;;;;3.79;70.28;99601.31;104998;1284;107110;-81
2022/11/22 11:25:30;;;;;;;42.10;20.40;;;;;;;3.69;69.94;99600.19;105021;1297;93428;-79
2022/11/22 11:28:05;;;;;;;42.00;21.80;;;;;;;3.62;70.05;99593.43;104931;1298;139963;-80
2022/11/22 11:30:42;;;;;;;44.60;22.10;;;;;;;3.57;70.17;99596.99;104914;1298;107636;-80
2022/11/22 11:33:28;;;;;;;43.20;21.80;;;;;;;3.57;70.40;99598.75;104755;1294;140567;-79
2022/11/22 11:36:05;;;;;;;42.50;21.10;;;;;;;3.54;70.19;99601.06;104939;1285;107473;-80
2022/11/22 11:38:48;;;;;;;44.90;23.70;;;;;;;3.52;70.50;99596.34;104880;1295;141442;-79
2022/11/22 11:41:22;;;;;;;43.70;22.10;;;;;;;3.57;70.86;99595.06;105052;1292;92790;-79
2022/11/22 11:43:54;;;;;;;50.20;24.10;;;;;;;3.59;70.95;99592.05;104871;1291;139133;-80
2022/11/22 11:46:27;;;;;;;48.10;24.60;;;;;;;3.62;70.91;99587.28;104958;1294;98482;-80
2022/11/22 11:49:08;;;;;;;45.40;23.50;;;;;;;3.62;70.69;99582.71;105022;1294;107868;-80
2022/11/22 11:51:42;;;;;;;45.00;21.40;;;;;;;3.63;70.90;99576.20;104812;1282;138905;-79
2022/11/22 11:54:17;;;;;;;43.60;23.30;;;;;;;3.64;70.57;99572.88;105003;1292;93297;-79